sensor_id;sensor_type;location;lat;lon;timestamp;pressure;altitude;pressure_sealevel;temperature;humidity
64908;BME280;64365;-1.756;110.040;2022-12-29T00:01:46;99840.47;;;11.33;96.45
64908;BME280;64365;-1.756;110.040;2022-12-29T00:04:14;99842.69;;;11.38;96.77
64908;BME280;64365;-1.756;110.040;2022-12-29T00:06:42;99841.50;;;11.46;96.43
64908;BME280;64365;-1.756;110.040;2022-12-29T00:09:10;99837.31;;;11.45;95.65
64908;BME280;64365;-1.756;110.040;2022-12-29T00:11:38;99833.88;;;11.44;95.46
64908;BME280;64365;-1.756;110.040;2022-12-29T00:14:05;99839.53;;;11.54;95.26
64908;BME280;64365;-1.756;110.040;2022-12-29T00:16:49;99839.13;;;11.55;94.83
64908;BME280;64365;-1.756;110.040;2022-12-29T00:19:17;99825.09;;;11.51;95.14
64908;BME280;64365;-1.756;110.040;2022-12-29T00:22:01;99812.91;;;11.54;94.54
64908;BME280;64365;-1.756;110.040;2022-12-29T00:24:45;99801.53;;;11.53;93.57
64908;BME280;64365;-1.756;110.040;2022-12-29T00:27:31;99802.59;;;11.59;93.73
64908;BME280;64365;-1.756;110.040;2022-12-29T00:30:16;99795.78;;;11.58;93.86
64908;BME280;64365;-1.756;110.040;2022-12-29T00:33:00;99791.53;;;11.65;92.47
64908;BME280;64365;-1.756;110.040;2022-12-29T00:35:46;99786.59;;;11.63;92.69
64908;BME280;64365;-1.756;110.040;2022-12-29T00:38:14;99783.84;;;11.74;90.70
64908;BME280;64365;-1.756;110.040;2022-12-29T00:40:58;99780.03;;;11.75;90.54
64908;BME280;64365;-1.756;110.040;2022-12-29T00:43:42;99780.03;;;11.75;90.76
64908;BME280;64365;-1.756;110.040;2022-12-29T00:46:26;99775.41;;;11.79;90.23
64908;BME280;64365;-1.756;110.040;2022-12-29T00:48:52;99769.59;;;11.88;90.14
64908;BME280;64365;-1.756;110.040;2022-12-29T00:51:38;99763.56;;;11.84;89.95
64908;BME280;64365;-1.756;110.040;2022-12-29T00:54:05;99755.19;;;11.85;89.81
64908;BME280;64365;-1.756;110.040;2022-12-29T00:56:31;99754.84;;;11.83;90.13
64908;BME280;64365;-1.756;110.040;2022-12-29T00:59:00;99754.03;;;11.86;89.91
64908;BME280;64365;-1.756;110.040;2022-12-29T01:01:26;99746.38;;;11.92;88.72
64908;BME280;64365;-1.756;110.040;2022-12-29T01:03:53;99744.47;;;11.92;88.42
64908;BME280;64365;-1.756;110.040;2022-12-29T01:06:19;99742.97;;;11.91;87.94
64908;BME280;64365;-1.756;110.040;2022-12-29T01:08:47;99752.47;;;11.92;88.50
64908;BME280;64365;-1.756;110.040;2022-12-29T01:11:34;99746.41;;;11.88;89.29
64908;BME280;64365;-1.756;110.040;2022-12-29T01:14:00;99738.50;;;11.81;90.12
64908;BME280;64365;-1.756;110.040;2022-12-29T01:16:26;99737.06;;;11.73;91.63
64908;BME280;64365;-1.756;110.040;2022-12-29T01:18:53;99744.38;;;11.65;92.39
64908;BME280;64365;-1.756;110.040;2022-12-29T01:21:20;99726.19;;;11.60;92.89
64908;BME280;64365;-1.756;110.040;2022-12-29T01:23:48;99713.41;;;11.44;93.70
64908;BME280;64365;-1.756;110.040;2022-12-29T01:26:16;99742.25;;;11.49;93.90
64908;BME280;64365;-1.756;110.040;2022-12-29T01:28:46;99735.41;;;11.48;94.31
64908;BME280;64365;-1.756;110.040;2022-12-29T01:31:14;99749.88;;;11.47;94.24
64908;BME280;64365;-1.756;110.040;2022-12-29T01:33:41;99739.28;;;11.43;95.31
64908;BME280;64365;-1.756;110.040;2022-12-29T01:36:10;99738.16;;;11.41;95.78
64908;BME280;64365;-1.756;110.040;2022-12-29T01:38:37;99736.34;;;11.31;96.23
64908;BME280;64365;-1.756;110.040;2022-12-29T01:41:07;99748.13;;;11.29;97.05
64908;BME280;64365;-1.756;110.040;2022-12-29T01:43:39;99747.78;;;11.27;97.75
64908;BME280;64365;-1.756;110.040;2022-12-29T01:46:14;99742.91;;;11.19;98.43
64908;BME280;64365;-1.756;110.040;2022-12-29T01:48:42;99735.31;;;11.17;99.04
64908;BME280;64365;-1.756;110.040;2022-12-29T01:51:09;99738.78;;;11.14;99.21
64908;BME280;64365;-1.756;110.040;2022-12-29T01:53:36;99738.38;;;11.12;99.33
64908;BME280;64365;-1.756;110.040;2022-12-29T01:56:07;99735.31;;;11.17;99.21
64908;BME280;64365;-1.756;110.040;2022-12-29T01:58:39;99748.63;;;11.17;98.92
64908;BME280;64365;-1.756;110.040;2022-12-29T02:01:08;99749.34;;;11.21;98.68
64908;BME280;64365;-1.756;110.040;2022-12-29T02:03:35;99731.59;;;11.11;98.66
64908;BME280;64365;-1.756;110.040;2022-12-29T02:06:07;99746.69;;;11.21;98.92
64908;BME280;64365;-1.756;110.040;2022-12-29T02:08:37;99741.72;;;11.23;98.57
64908;BME280;64365;-1.756;110.040;2022-12-29T02:11:07;99749.31;;;11.25;98.46
64908;BME280;64365;-1.756;110.040;2022-12-29T02:13:33;99739.06;;;11.23;98.84
64908;BME280;64365;-1.756;110.040;2022-12-29T02:16:08;99739.47;;;11.22;98.21
64908;BME280;64365;-1.756;110.040;2022-12-29T02:18:45;99753.09;;;11.27;97.10
64908;BME280;64365;-1.756;110.040;2022-12-29T02:21:45;99753.84;;;11.28;97.33
64908;BME280;64365;-1.756;110.040;2022-12-29T02:27:40;99764.84;;;11.30;96.48
64908;BME280;64365;-1.756;110.040;2022-12-29T02:30:16;99746.97;;;11.31;95.36
64908;BME280;64365;-1.756;110.040;2022-12-29T02:32:52;99753.41;;;11.37;94.75
64908;BME280;64365;-1.756;110.040;2022-12-29T02:35:29;99744.25;;;11.38;94.41
64908;BME280;64365;-1.756;110.040;2022-12-29T02:38:05;99748.81;;;11.41;93.85
64908;BME280;64365;-1.756;110.040;2022-12-29T02:40:42;99748.41;;;11.42;93.33
64908;BME280;64365;-1.756;110.040;2022-12-29T02:43:16;99732.78;;;11.44;93.43
64908;BME280;64365;-1.756;110.040;2022-12-29T02:45:49;99722.16;;;11.44;93.24
64908;BME280;64365;-1.756;110.040;2022-12-29T02:48:25;99735.09;;;11.42;92.92
64908;BME280;64365;-1.756;110.040;2022-12-29T02:50:58;99728.75;;;11.29;92.77
64908;BME280;64365;-1.756;110.040;2022-12-29T02:53:29;99747.69;;;11.38;93.47
64908;BME280;64365;-1.756;110.040;2022-12-29T02:56:14;99748.00;;;11.44;92.57
64908;BME280;64365;-1.756;110.040;2022-12-29T02:58:40;99730.56;;;11.39;91.93
64908;BME280;64365;-1.756;110.040;2022-12-29T03:01:23;99721.91;;;11.28;92.15
64908;BME280;64365;-1.756;110.040;2022-12-29T03:04:08;99723.38;;;11.36;91.80
64908;BME280;64365;-1.756;110.040;2022-12-29T03:06:47;99719.97;;;11.36;91.37
64908;BME280;64365;-1.756;110.040;2022-12-29T03:09:21;99729.47;;;11.37;90.56
64908;BME280;64365;-1.756;110.040;2022-12-29T03:12:10;99729.06;;;11.38;90.11
64908;BME280;64365;-1.756;110.040;2022-12-29T03:14:50;99733.25;;;11.36;89.10
64908;BME280;64365;-1.756;110.040;2022-12-29T03:17:40;99735.91;;;11.36;87.71
64908;BME280;64365;-1.756;110.040;2022-12-29T03:20:16;99751.09;;;11.39;86.69
64908;BME280;64365;-1.756;110.040;2022-12-29T03:22:47;99745.41;;;11.37;86.50
64908;BME280;64365;-1.756;110.040;2022-12-29T03:25:18;99760.25;;;11.34;86.53
64908;BME280;64365;-1.756;110.040;2022-12-29T03:27:50;99738.59;;;11.36;86.61
64908;BME280;64365;-1.756;110.040;2022-12-29T03:30:18;99738.59;;;11.36;85.70
64908;BME280;64365;-1.756;110.040;2022-12-29T03:32:48;99742.03;;;11.33;86.04
64908;BME280;64365;-1.756;110.040;2022-12-29T03:35:19;99742.81;;;11.29;86.03
64908;BME280;64365;-1.756;110.040;2022-12-29T03:37:51;99745.88;;;11.28;85.65
64908;BME280;64365;-1.756;110.040;2022-12-29T03:40:20;99735.28;;;11.24;86.04
64908;BME280;64365;-1.756;110.040;2022-12-29T03:42:48;99731.03;;;11.27;85.73
64908;BME280;64365;-1.756;110.040;2022-12-29T03:45:14;99735.63;;;11.26;86.09
64908;BME280;64365;-1.756;110.040;2022-12-29T03:47:41;99719.69;;;11.23;85.79
64908;BME280;64365;-1.756;110.040;2022-12-29T03:50:08;99728.03;;;11.28;86.15
64908;BME280;64365;-1.756;110.040;2022-12-29T03:52:36;99734.50;;;11.24;85.49
64908;BME280;64365;-1.756;110.040;2022-12-29T03:55:03;99731.88;;;11.20;85.79
64908;BME280;64365;-1.756;110.040;2022-12-29T03:57:30;99727.72;;;11.19;85.72
64908;BME280;64365;-1.756;110.040;2022-12-29T03:59:56;99722.03;;;11.17;85.78
64908;BME280;64365;-1.756;110.040;2022-12-29T04:02:23;99723.94;;;11.13;86.13
64908;BME280;64365;-1.756;110.040;2022-12-29T04:04:50;99727.75;;;11.12;85.91
64908;BME280;64365;-1.756;110.040;2022-12-29T04:07:16;99720.56;;;11.12;86.44
64908;BME280;64365;-1.756;110.040;2022-12-29T04:09:44;99744.88;;;11.11;86.03
64908;BME280;64365;-1.756;110.040;2022-12-29T04:12:10;99748.25;;;11.15;86.27
64908;BME280;64365;-1.756;110.040;2022-12-29T04:14:37;99752.41;;;11.16;86.65
64908;BME280;64365;-1.756;110.040;2022-12-29T04:17:03;99766.88;;;11.15;86.85
64908;BME280;64365;-1.756;110.040;2022-12-29T04:19:30;99769.16;;;11.13;86.91
64908;BME280;64365;-1.756;110.040;2022-12-29T04:21:57;99756.31;;;11.04;87.30
64908;BME280;64365;-1.756;110.040;2022-12-29T04:24:23;99749.81;;;11.12;87.07
64908;BME280;64365;-1.756;110.040;2022-12-29T04:26:51;99714.63;;;10.90;87.53
64908;BME280;64365;-1.756;110.040;2022-12-29T04:29:18;99752.06;;;11.14;86.61
64908;BME280;64365;-1.756;110.040;2022-12-29T04:31:44;99746.03;;;11.10;86.56
64908;BME280;64365;-1.756;110.040;2022-12-29T04:34:11;99759.72;;;11.05;86.14
64908;BME280;64365;-1.756;110.040;2022-12-29T04:36:37;99776.34;;;11.16;85.04
64908;BME280;64365;-1.756;110.040;2022-12-29T04:39:05;99786.25;;;11.12;85.23
64908;BME280;64365;-1.756;110.040;2022-12-29T04:41:32;99775.25;;;11.14;84.11
64908;BME280;64365;-1.756;110.040;2022-12-29T04:44:00;99769.19;;;11.09;84.11
64908;BME280;64365;-1.756;110.040;2022-12-29T04:46:27;99781.34;;;11.10;83.83
64908;BME280;64365;-1.756;110.040;2022-12-29T04:48:54;99777.94;;;11.10;83.98
64908;BME280;64365;-1.756;110.040;2022-12-29T04:51:20;99772.63;;;11.10;83.69
64908;BME280;64365;-1.756;110.040;2022-12-29T04:53:47;99764.63;;;11.10;83.74
64908;BME280;64365;-1.756;110.040;2022-12-29T04:56:14;99770.31;;;11.12;81.88
64908;BME280;64365;-1.756;110.040;2022-12-29T04:58:40;99772.63;;;11.06;82.32
64908;BME280;64365;-1.756;110.040;2022-12-29T05:01:08;99785.13;;;11.09;82.42
64908;BME280;64365;-1.756;110.040;2022-12-29T05:03:35;99777.19;;;11.06;81.81
64908;BME280;64365;-1.756;110.040;2022-12-29T05:06:01;99779.81;;;11.09;81.25
64908;BME280;64365;-1.756;110.040;2022-12-29T05:08:28;99794.69;;;11.07;80.57
64908;BME280;64365;-1.756;110.040;2022-12-29T05:10:54;99807.56;;;11.08;80.84
64908;BME280;64365;-1.756;110.040;2022-12-29T05:13:21;99795.44;;;11.04;81.12
64908;BME280;64365;-1.756;110.040;2022-12-29T05:15:49;99792.03;;;11.00;81.57
64908;BME280;64365;-1.756;110.040;2022-12-29T05:18:18;99797.41;;;10.92;82.23
64908;BME280;64365;-1.756;110.040;2022-12-29T05:20:44;99799.69;;;10.90;82.50
64908;BME280;64365;-1.756;110.040;2022-12-29T05:23:11;99798.97;;;10.86;82.95
64908;BME280;64365;-1.756;110.040;2022-12-29T05:25:38;99794.81;;;10.85;83.76
64908;BME280;64365;-1.756;110.040;2022-12-29T05:28:05;99800.88;;;10.82;84.17
64908;BME280;64365;-1.756;110.040;2022-12-29T05:30:31;99786.16;;;10.70;84.68
64908;BME280;64365;-1.756;110.040;2022-12-29T05:32:58;99793.38;;;10.70;85.10
64908;BME280;64365;-1.756;110.040;2022-12-29T05:35:26;99793.41;;;10.63;85.34
64908;BME280;64365;-1.756;110.040;2022-12-29T05:37:52;99796.06;;;10.63;85.80
64908;BME280;64365;-1.756;110.040;2022-12-29T05:40:19;99797.59;;;10.60;85.77
64908;BME280;64365;-1.756;110.040;2022-12-29T05:42:45;99809.38;;;10.63;86.06
64908;BME280;64365;-1.756;110.040;2022-12-29T05:45:12;99808.59;;;10.62;86.06
64908;BME280;64365;-1.756;110.040;2022-12-29T05:47:38;99807.50;;;10.52;85.89
64908;BME280;64365;-1.756;110.040;2022-12-29T05:50:05;99809.81;;;10.50;86.97
64908;BME280;64365;-1.756;110.040;2022-12-29T05:52:33;99799.19;;;10.43;87.29
64908;BME280;64365;-1.756;110.040;2022-12-29T05:55:00;99810.19;;;10.45;87.05
64908;BME280;64365;-1.756;110.040;2022-12-29T05:57:26;99812.88;;;10.41;87.11
64908;BME280;64365;-1.756;110.040;2022-12-29T05:59:53;99808.31;;;10.42;86.82
64908;BME280;64365;-1.756;110.040;2022-12-29T06:02:19;99814.78;;;10.37;87.71
64908;BME280;64365;-1.756;110.040;2022-12-29T06:04:46;99805.28;;;10.33;87.49
64908;BME280;64365;-1.756;110.040;2022-12-29T06:07:13;99815.16;;;10.39;86.91
64908;BME280;64365;-1.756;110.040;2022-12-29T06:09:41;99818.56;;;10.40;87.25
64908;BME280;64365;-1.756;110.040;2022-12-29T06:12:07;99828.06;;;10.37;86.21
64908;BME280;64365;-1.756;110.040;2022-12-29T06:14:34;99814.78;;;10.41;86.48
64908;BME280;64365;-1.756;110.040;2022-12-29T06:17:00;99818.91;;;10.45;85.32
64908;BME280;64365;-1.756;110.040;2022-12-29T06:19:27;99816.66;;;10.40;84.93
64908;BME280;64365;-1.756;110.040;2022-12-29T06:21:54;99819.69;;;10.42;85.51
64908;BME280;64365;-1.756;110.040;2022-12-29T06:24:20;99815.91;;;10.43;85.85
64908;BME280;64365;-1.756;110.040;2022-12-29T06:26:48;99834.50;;;10.40;86.33
64908;BME280;64365;-1.756;110.040;2022-12-29T06:29:15;99830.34;;;10.32;86.40
64908;BME280;64365;-1.756;110.040;2022-12-29T06:31:42;99844.00;;;10.34;85.83
64908;BME280;64365;-1.756;110.040;2022-12-29T06:34:10;99835.63;;;10.32;86.21
64908;BME280;64365;-1.756;110.040;2022-12-29T06:36:37;99844.75;;;10.31;86.68
64908;BME280;64365;-1.756;110.040;2022-12-29T06:39:04;99844.38;;;10.28;86.60
64908;BME280;64365;-1.756;110.040;2022-12-29T06:41:30;99841.72;;;10.25;86.45
64908;BME280;64365;-1.756;110.040;2022-12-29T06:43:58;99843.25;;;10.26;86.18
64908;BME280;64365;-1.756;110.040;2022-12-29T06:46:25;99854.25;;;10.24;85.94
64908;BME280;64365;-1.756;110.040;2022-12-29T06:48:51;99846.69;;;10.23;85.62
64908;BME280;64365;-1.756;110.040;2022-12-29T06:51:18;99841.72;;;10.28;85.40
64908;BME280;64365;-1.756;110.040;2022-12-29T06:53:47;99845.13;;;10.25;85.36
64908;BME280;64365;-1.756;110.040;2022-12-29T06:56:13;99852.34;;;10.28;85.43
64908;BME280;64365;-1.756;110.040;2022-12-29T06:58:40;99853.09;;;10.29;85.05
64908;BME280;64365;-1.756;110.040;2022-12-29T07:01:08;99845.88;;;10.29;84.13
64908;BME280;64365;-1.756;110.040;2022-12-29T07:03:35;99842.47;;;10.25;84.38
64908;BME280;64365;-1.756;110.040;2022-12-29T07:06:01;99853.09;;;10.33;83.64
64908;BME280;64365;-1.756;110.040;2022-12-29T07:08:28;99858.41;;;10.33;83.24
64908;BME280;64365;-1.756;110.040;2022-12-29T07:10:54;99851.56;;;10.32;83.14
64908;BME280;64365;-1.756;110.040;2022-12-29T07:13:21;99850.84;;;10.31;82.35
64908;BME280;64365;-1.756;110.040;2022-12-29T07:15:47;99843.25;;;10.37;82.28
64908;BME280;64365;-1.756;110.040;2022-12-29T07:18:15;99850.09;;;10.38;82.58
64908;BME280;64365;-1.756;110.040;2022-12-29T07:20:42;99852.31;;;10.43;81.03
64908;BME280;64365;-1.756;110.040;2022-12-29T07:23:08;99844.00;;;10.44;80.68
64908;BME280;64365;-1.756;110.040;2022-12-29T07:25:35;99866.38;;;10.43;80.75
64908;BME280;64365;-1.756;110.040;2022-12-29T07:28:02;99857.63;;;10.43;80.79
64908;BME280;64365;-1.756;110.040;2022-12-29T07:30:28;99875.47;;;10.42;79.57
64908;BME280;64365;-1.756;110.040;2022-12-29T07:32:55;99858.41;;;10.43;79.78
64908;BME280;64365;-1.756;110.040;2022-12-29T07:35:23;99867.16;;;10.37;80.21
64908;BME280;64365;-1.756;110.040;2022-12-29T07:37:50;99872.06;;;10.38;80.33
64908;BME280;64365;-1.756;110.040;2022-12-29T07:40:16;99864.84;;;10.32;80.21
64908;BME280;64365;-1.756;110.040;2022-12-29T07:42:43;99870.56;;;10.26;81.08
64908;BME280;64365;-1.756;110.040;2022-12-29T07:45:10;99881.94;;;10.23;81.42
64908;BME280;64365;-1.756;110.040;2022-12-29T07:47:36;99874.00;;;10.16;81.79
64908;BME280;64365;-1.756;110.040;2022-12-29T07:50:04;99867.94;;;10.23;81.49
64908;BME280;64365;-1.756;110.040;2022-12-29T07:52:32;99881.94;;;10.23;81.63
64908;BME280;64365;-1.756;110.040;2022-12-29T07:55:01;99881.97;;;10.13;82.21
64908;BME280;64365;-1.756;110.040;2022-12-29T07:57:28;99874.75;;;10.13;82.50
64908;BME280;64365;-1.756;110.040;2022-12-29T07:59:54;99872.13;;;10.09;82.94
64908;BME280;64365;-1.756;110.040;2022-12-29T08:02:21;99871.75;;;10.11;82.71
64908;BME280;64365;-1.756;110.040;2022-12-29T08:04:47;99861.50;;;10.09;83.03
64908;BME280;64365;-1.756;110.040;2022-12-29T08:07:14;99857.69;;;10.18;82.24
64908;BME280;64365;-1.756;110.040;2022-12-29T08:09:42;99839.09;;;10.14;82.48
64908;BME280;64365;-1.756;110.040;2022-12-29T08:12:09;99845.91;;;10.19;81.92
64908;BME280;64365;-1.756;110.040;2022-12-29T08:14:36;99853.88;;;10.22;81.67
64908;BME280;64365;-1.756;110.040;2022-12-29T08:17:03;99859.19;;;10.22;81.82
64908;BME280;64365;-1.756;110.040;2022-12-29T08:19:29;99861.06;;;10.29;81.09
64908;BME280;64365;-1.756;110.040;2022-12-29T08:21:56;99848.53;;;10.29;81.39
64908;BME280;64365;-1.756;110.040;2022-12-29T08:24:22;99849.31;;;10.37;80.40
64908;BME280;64365;-1.756;110.040;2022-12-29T08:26:50;99853.88;;;10.37;79.97
64908;BME280;64365;-1.756;110.040;2022-12-29T08:29:17;99851.97;;;10.41;79.75
64908;BME280;64365;-1.756;110.040;2022-12-29T08:31:44;99844.00;;;10.41;79.33
64908;BME280;64365;-1.756;110.040;2022-12-29T08:34:11;99853.47;;;10.42;79.31
64908;BME280;64365;-1.756;110.040;2022-12-29T08:36:37;99846.28;;;10.35;79.06
64908;BME280;64365;-1.756;110.040;2022-12-29T08:39:04;99867.91;;;10.44;79.03
64908;BME280;64365;-1.756;110.040;2022-12-29T08:41:31;99855.00;;;10.39;78.66
64908;BME280;64365;-1.756;110.040;2022-12-29T08:43:59;99866.38;;;10.33;78.83
64908;BME280;64365;-1.756;110.040;2022-12-29T08:46:25;99862.19;;;10.39;79.17
64908;BME280;64365;-1.756;110.040;2022-12-29T08:48:52;99868.25;;;10.43;78.88
64908;BME280;64365;-1.756;110.040;2022-12-29T08:51:19;99887.63;;;10.33;79.36
64908;BME280;64365;-1.756;110.040;2022-12-29T08:53:46;99878.91;;;10.36;79.26
64908;BME280;64365;-1.756;110.040;2022-12-29T08:56:15;99882.69;;;10.38;79.17
64908;BME280;64365;-1.756;110.040;2022-12-29T08:58:42;99882.31;;;10.36;79.50
64908;BME280;64365;-1.756;110.040;2022-12-29T09:01:10;99885.75;;;10.37;80.03
64908;BME280;64365;-1.756;110.040;2022-12-29T09:03:37;99892.53;;;10.41;79.27
64908;BME280;64365;-1.756;110.040;2022-12-29T09:06:04;99897.50;;;10.36;80.08
64908;BME280;64365;-1.756;110.040;2022-12-29T09:08:30;99899.03;;;10.37;80.39
64908;BME280;64365;-1.756;110.040;2022-12-29T09:11:06;99891.81;;;10.34;80.30
64908;BME280;64365;-1.756;110.040;2022-12-29T09:13:33;99897.13;;;10.34;80.54
64908;BME280;64365;-1.756;110.040;2022-12-29T09:16:00;99919.50;;;10.25;81.51
64908;BME280;64365;-1.756;110.040;2022-12-29T09:18:28;99910.03;;;10.24;82.90
64908;BME280;64365;-1.756;110.040;2022-12-29T09:20:56;99916.47;;;10.09;83.85
64908;BME280;64365;-1.756;110.040;2022-12-29T09:23:23;99919.53;;;10.11;84.38
64908;BME280;64365;-1.756;110.040;2022-12-29T09:25:50;99919.91;;;10.06;85.53
64908;BME280;64365;-1.756;110.040;2022-12-29T09:28:16;99929.78;;;10.02;86.19
64908;BME280;64365;-1.756;110.040;2022-12-29T09:30:43;99947.22;;;10.03;86.75
64908;BME280;64365;-1.756;110.040;2022-12-29T09:33:09;99958.59;;;9.96;87.52
64908;BME280;64365;-1.756;110.040;2022-12-29T09:35:41;99951.75;;;9.91;87.94
64908;BME280;64365;-1.756;110.040;2022-12-29T09:38:08;99948.75;;;9.89;88.89
64908;BME280;64365;-1.756;110.040;2022-12-29T09:40:34;99954.78;;;9.86;88.88
64908;BME280;64365;-1.756;110.040;2022-12-29T09:43:12;99960.88;;;9.80;90.23
64908;BME280;64365;-1.756;110.040;2022-12-29T09:45:44;99973.75;;;9.70;90.65
64908;BME280;64365;-1.756;110.040;2022-12-29T09:48:15;99958.94;;;9.69;90.92
64908;BME280;64365;-1.756;110.040;2022-12-29T09:50:47;99967.66;;;9.70;91.67
64908;BME280;64365;-1.756;110.040;2022-12-29T09:53:18;99986.63;;;9.72;91.62
64908;BME280;64365;-1.756;110.040;2022-12-29T09:55:48;99990.78;;;9.66;91.99
64908;BME280;64365;-1.756;110.040;2022-12-29T09:58:21;99993.81;;;9.64;93.32
64908;BME280;64365;-1.756;110.040;2022-12-29T10:00:54;99997.22;;;9.65;93.30
64908;BME280;64365;-1.756;110.040;2022-12-29T10:03:26;100004.41;;;9.60;94.13
64908;BME280;64365;-1.756;110.040;2022-12-29T10:06:01;100004.41;;;9.60;93.99
64908;BME280;64365;-1.756;110.040;2022-12-29T10:08:37;100018.09;;;9.66;94.07
64908;BME280;64365;-1.756;110.040;2022-12-29T10:11:14;100020.72;;;9.63;94.31
64908;BME280;64365;-1.756;110.040;2022-12-29T10:13:58;100021.09;;;9.57;95.08
64908;BME280;64365;-1.756;110.040;2022-12-29T10:16:37;100026.00;;;9.59;94.94
64908;BME280;64365;-1.756;110.040;2022-12-29T10:19:25;100013.53;;;9.67;94.56
64908;BME280;64365;-1.756;110.040;2022-12-29T10:22:03;100018.06;;;9.70;94.53
64908;BME280;64365;-1.756;110.040;2022-12-29T10:24:34;100038.19;;;9.71;95.28
64908;BME280;64365;-1.756;110.040;2022-12-29T10:27:05;100029.84;;;9.69;95.35
64908;BME280;64365;-1.756;110.040;2022-12-29T10:29:38;100037.78;;;9.72;95.41
64908;BME280;64365;-1.756;110.040;2022-12-29T10:32:11;100051.84;;;9.80;95.41
64908;BME280;64365;-1.756;110.040;2022-12-29T10:34:45;100058.31;;;9.83;95.07
64908;BME280;64365;-1.756;110.040;2022-12-29T10:37:24;100042.00;;;9.84;94.69
64908;BME280;64365;-1.756;110.040;2022-12-29T10:39:55;100061.72;;;9.90;94.67
64908;BME280;64365;-1.756;110.040;2022-12-29T10:42:26;100062.09;;;9.92;95.12
64908;BME280;64365;-1.756;110.040;2022-12-29T10:44:54;100070.44;;;9.98;94.34
64908;BME280;64365;-1.756;110.040;2022-12-29T10:47:23;100073.09;;;9.98;94.37
64908;BME280;64365;-1.756;110.040;2022-12-29T10:49:51;100084.13;;;10.00;94.39
64908;BME280;64365;-1.756;110.040;2022-12-29T10:52:21;100090.94;;;10.05;94.30
64908;BME280;64365;-1.756;110.040;2022-12-29T10:54:51;100090.19;;;10.08;94.29
64908;BME280;64365;-1.756;110.040;2022-12-29T10:57:26;100104.25;;;10.16;93.63
64908;BME280;64365;-1.756;110.040;2022-12-29T10:59:53;100105.00;;;10.23;92.89
64908;BME280;64365;-1.756;110.040;2022-12-29T11:02:40;100102.38;;;10.27;92.48
64908;BME280;64365;-1.756;110.040;2022-12-29T11:05:16;100109.97;;;10.43;92.58
64908;BME280;64365;-1.756;110.040;2022-12-29T11:07:48;100109.97;;;10.65;92.88
64908;BME280;64365;-1.756;110.040;2022-12-29T11:10:18;100111.88;;;10.75;91.38
64908;BME280;64365;-1.756;110.040;2022-12-29T11:12:56;100112.25;;;10.95;91.35
64908;BME280;64365;-1.756;110.040;2022-12-29T11:15:23;100123.22;;;11.19;90.15
64908;BME280;64365;-1.756;110.040;2022-12-29T11:17:51;100119.81;;;11.18;87.72
64908;BME280;64365;-1.756;110.040;2022-12-29T11:20:33;100136.13;;;11.09;88.48
64908;BME280;64365;-1.756;110.040;2022-12-29T11:23:04;100138.44;;;11.11;87.47
64908;BME280;64365;-1.756;110.040;2022-12-29T11:25:31;100130.47;;;10.97;87.30
64908;BME280;64365;-1.756;110.040;2022-12-29T11:28:01;100144.13;;;10.99;86.78
64908;BME280;64365;-1.756;110.040;2022-12-29T11:30:30;100132.00;;;10.94;87.09
64908;BME280;64365;-1.756;110.040;2022-12-29T11:32:57;100151.34;;;10.94;86.65
64908;BME280;64365;-1.756;110.040;2022-12-29T11:35:33;100152.88;;;10.95;86.70
64908;BME280;64365;-1.756;110.040;2022-12-29T11:38:02;100156.31;;;10.92;86.53
64908;BME280;64365;-1.756;110.040;2022-12-29T11:40:31;100155.16;;;10.90;86.78
64908;BME280;64365;-1.756;110.040;2022-12-29T11:43:01;100160.50;;;10.93;87.31
64908;BME280;64365;-1.756;110.040;2022-12-29T11:45:30;100176.44;;;11.01;86.11
64908;BME280;64365;-1.756;110.040;2022-12-29T11:48:00;100171.13;;;11.01;85.39
64908;BME280;64365;-1.756;110.040;2022-12-29T11:50:29;100172.63;;;10.98;84.99
64908;BME280;64365;-1.756;110.040;2022-12-29T11:52:59;100184.78;;;10.99;84.56
64908;BME280;64365;-1.756;110.040;2022-12-29T11:55:28;100180.59;;;10.98;84.00
64908;BME280;64365;-1.756;110.040;2022-12-29T11:57:57;100181.00;;;11.07;84.21
64908;BME280;64365;-1.756;110.040;2022-12-29T12:00:27;100199.56;;;11.25;83.86
64908;BME280;64365;-1.756;110.040;2022-12-29T12:02:58;100182.44;;;11.48;83.11
64908;BME280;64365;-1.756;110.040;2022-12-29T12:05:32;100181.53;;;11.87;82.61
64908;BME280;64365;-1.756;110.040;2022-12-29T12:08:07;100187.47;;;12.27;82.28
64908;BME280;64365;-1.756;110.040;2022-12-29T12:10:41;100194.47;;;12.67;79.97
64908;BME280;64365;-1.756;110.040;2022-12-29T12:13:23;100192.53;;;12.71;77.06
64908;BME280;64365;-1.756;110.040;2022-12-29T12:15:55;100207.78;;;12.67;76.01
64908;BME280;64365;-1.756;110.040;2022-12-29T12:18:32;100200.25;;;12.54;75.33
64908;BME280;64365;-1.756;110.040;2022-12-29T12:21:08;100201.34;;;12.57;75.98
64908;BME280;64365;-1.756;110.040;2022-12-29T12:23:43;100205.59;;;12.54;75.82
64908;BME280;64365;-1.756;110.040;2022-12-29T12:26:16;100213.59;;;12.54;75.72
64908;BME280;64365;-1.756;110.040;2022-12-29T12:28:49;100213.22;;;12.52;75.42
64908;BME280;64365;-1.756;110.040;2022-12-29T12:31:27;100216.25;;;12.54;75.78
64908;BME280;64365;-1.756;110.040;2022-12-29T12:33:59;100215.50;;;12.50;75.86
64908;BME280;64365;-1.756;110.040;2022-12-29T12:36:42;100231.53;;;12.46;75.29
64908;BME280;64365;-1.756;110.040;2022-12-29T12:39:20;100231.06;;;12.55;73.41
64908;BME280;64365;-1.756;110.040;2022-12-29T12:42:00;100217.06;;;12.44;72.83
64908;BME280;64365;-1.756;110.040;2022-12-29T12:44:33;100230.81;;;12.35;72.89
64908;BME280;64365;-1.756;110.040;2022-12-29T12:47:21;100224.03;;;12.23;72.29
64908;BME280;64365;-1.756;110.040;2022-12-29T12:50:18;100235.53;;;12.06;72.40
64908;BME280;64365;-1.756;110.040;2022-12-29T12:53:02;100225.66;;;11.88;73.25
64908;BME280;64365;-1.756;110.040;2022-12-29T12:56:01;100230.28;;;11.73;73.99
64908;BME280;64365;-1.756;110.040;2022-12-29T12:58:37;100236.00;;;11.65;73.93